sensor_id;sensor_type;location;lat;lon;timestamp;P1;durP1;ratioP1;P2;durP2;ratioP2
1258;SDS011;619;51.472;6.628;2023-07-29T00:00:49;2.37;;;2.17;;
1258;SDS011;619;51.472;6.628;2023-07-29T00:03:17;2.43;;;2.10;;
1258;SDS011;619;51.472;6.628;2023-07-29T00:05:47;3.90;;;1.93;;
1258;SDS011;619;51.472;6.628;2023-07-29T00:08:13;2.43;;;2.23;;
1258;SDS011;619;51.472;6.628;2023-07-29T00:10:41;2.70;;;1.70;;
1258;SDS011;619;51.472;6.628;2023-07-29T00:13:08;4.93;;;2.20;;
1258;SDS011;619;51.472;6.628;2023-07-29T00:15:34;2.13;;;1.93;;
1258;SDS011;619;51.472;6.628;2023-07-29T00:18:02;3.07;;;2.30;;
1258;SDS011;619;51.472;6.628;2023-07-29T00:20:28;3.37;;;1.63;;
1258;SDS011;619;51.472;6.628;2023-07-29T00:22:56;2.47;;;2.27;;
1258;SDS011;619;51.472;6.628;2023-07-29T00:25:23;2.13;;;1.93;;
1258;SDS011;619;51.472;6.628;2023-07-29T00:27:49;2.63;;;2.30;;
1258;SDS011;619;51.472;6.628;2023-07-29T00:30:14;2.53;;;2.33;;
1258;SDS011;619;51.472;6.628;2023-07-29T00:32:40;2.93;;;1.93;;
1258;SDS011;619;51.472;6.628;2023-07-29T00:35:06;2.90;;;1.87;;
1258;SDS011;619;51.472;6.628;2023-07-29T00:37:32;2.70;;;2.50;;
1258;SDS011;619;51.472;6.628;2023-07-29T00:39:57;5.90;;;2.37;;
1258;SDS011;619;51.472;6.628;2023-07-29T00:42:23;2.30;;;1.67;;
1258;SDS011;619;51.472;6.628;2023-07-29T00:44:54;2.73;;;2.00;;
1258;SDS011;619;51.472;6.628;2023-07-29T00:47:21;3.87;;;1.70;;
1258;SDS011;619;51.472;6.628;2023-07-29T00:49:49;2.93;;;2.10;;
1258;SDS011;619;51.472;6.628;2023-07-29T00:52:16;2.73;;;2.30;;
1258;SDS011;619;51.472;6.628;2023-07-29T00:54:42;2.10;;;1.80;;
1258;SDS011;619;51.472;6.628;2023-07-29T00:57:10;2.00;;;1.80;;
1258;SDS011;619;51.472;6.628;2023-07-29T00:59:41;2.27;;;2.07;;
1258;SDS011;619;51.472;6.628;2023-07-29T01:02:09;2.77;;;1.80;;
1258;SDS011;619;51.472;6.628;2023-07-29T01:04:37;5.00;;;2.50;;
1258;SDS011;619;51.472;6.628;2023-07-29T01:07:22;2.10;;;1.70;;
1258;SDS011;619;51.472;6.628;2023-07-29T01:18:23;2.67;;;2.00;;
1258;SDS011;619;51.472;6.628;2023-07-29T01:20:53;2.13;;;1.93;;
1258;SDS011;619;51.472;6.628;2023-07-29T01:23:23;2.73;;;1.77;;
1258;SDS011;619;51.472;6.628;2023-07-29T01:25:49;5.40;;;2.47;;
1258;SDS011;619;51.472;6.628;2023-07-29T01:28:15;4.63;;;2.60;;
1258;SDS011;619;51.472;6.628;2023-07-29T01:30:40;2.23;;;2.03;;
1258;SDS011;619;51.472;6.628;2023-07-29T01:38:24;2.37;;;2.17;;
1258;SDS011;619;51.472;6.628;2023-07-29T01:40:56;3.80;;;2.10;;
1258;SDS011;619;51.472;6.628;2023-07-29T01:43:28;2.13;;;1.93;;
1258;SDS011;619;51.472;6.628;2023-07-29T01:45:56;4.20;;;2.20;;
1258;SDS011;619;51.472;6.628;2023-07-29T01:48:25;3.77;;;2.50;;
1258;SDS011;619;51.472;6.628;2023-07-29T01:50:55;2.30;;;2.00;;
1258;SDS011;619;51.472;6.628;2023-07-29T01:53:20;4.60;;;2.00;;
1258;SDS011;619;51.472;6.628;2023-07-29T01:55:46;6.00;;;2.17;;
1258;SDS011;619;51.472;6.628;2023-07-29T01:58:12;2.67;;;2.20;;
1258;SDS011;619;51.472;6.628;2023-07-29T02:00:39;2.77;;;2.30;;
1258;SDS011;619;51.472;6.628;2023-07-29T02:03:09;3.70;;;2.27;;
1258;SDS011;619;51.472;6.628;2023-07-29T02:05:37;2.20;;;1.93;;
1258;SDS011;619;51.472;6.628;2023-07-29T02:08:02;6.83;;;2.10;;
1258;SDS011;619;51.472;6.628;2023-07-29T02:10:30;3.73;;;2.43;;
1258;SDS011;619;51.472;6.628;2023-07-29T02:12:56;4.67;;;2.10;;
1258;SDS011;619;51.472;6.628;2023-07-29T02:15:24;4.07;;;2.30;;
1258;SDS011;619;51.472;6.628;2023-07-29T02:17:53;4.33;;;2.47;;
1258;SDS011;619;51.472;6.628;2023-07-29T02:20:18;4.20;;;2.50;;
1258;SDS011;619;51.472;6.628;2023-07-29T02:22:46;3.53;;;2.93;;
1258;SDS011;619;51.472;6.628;2023-07-29T02:25:13;2.90;;;2.70;;
1258;SDS011;619;51.472;6.628;2023-07-29T02:27:41;5.00;;;2.47;;
1258;SDS011;619;51.472;6.628;2023-07-29T02:30:07;3.23;;;2.67;;
1258;SDS011;619;51.472;6.628;2023-07-29T02:32:34;3.10;;;2.60;;
1258;SDS011;619;51.472;6.628;2023-07-29T02:35:05;2.57;;;2.37;;
1258;SDS011;619;51.472;6.628;2023-07-29T02:37:31;2.83;;;2.43;;
1258;SDS011;619;51.472;6.628;2023-07-29T02:39:59;3.80;;;2.60;;
1258;SDS011;619;51.472;6.628;2023-07-29T02:42:28;2.57;;;2.37;;
1258;SDS011;619;51.472;6.628;2023-07-29T02:44:53;3.20;;;2.50;;
1258;SDS011;619;51.472;6.628;2023-07-29T02:47:19;3.10;;;2.50;;
1258;SDS011;619;51.472;6.628;2023-07-29T02:49:45;6.23;;;2.47;;
1258;SDS011;619;51.472;6.628;2023-07-29T02:52:10;3.40;;;2.67;;
1258;SDS011;619;51.472;6.628;2023-07-29T02:54:36;5.37;;;3.10;;
1258;SDS011;619;51.472;6.628;2023-07-29T02:57:01;3.57;;;3.27;;
1258;SDS011;619;51.472;6.628;2023-07-29T02:59:27;7.20;;;2.90;;
1258;SDS011;619;51.472;6.628;2023-07-29T03:01:53;4.17;;;2.63;;
1258;SDS011;619;51.472;6.628;2023-07-29T03:04:21;3.00;;;2.77;;
1258;SDS011;619;51.472;6.628;2023-07-29T03:06:47;3.50;;;3.20;;
1258;SDS011;619;51.472;6.628;2023-07-29T03:09:14;4.23;;;2.73;;
1258;SDS011;619;51.472;6.628;2023-07-29T03:11:40;3.50;;;3.20;;
1258;SDS011;619;51.472;6.628;2023-07-29T03:14:05;3.20;;;2.80;;
1258;SDS011;619;51.472;6.628;2023-07-29T03:16:31;3.53;;;3.23;;
1258;SDS011;619;51.472;6.628;2023-07-29T03:18:59;3.60;;;3.13;;
1258;SDS011;619;51.472;6.628;2023-07-29T03:21:27;3.30;;;3.10;;
1258;SDS011;619;51.472;6.628;2023-07-29T03:23:53;3.23;;;2.93;;
1258;SDS011;619;51.472;6.628;2023-07-29T03:26:18;3.07;;;2.80;;
1258;SDS011;619;51.472;6.628;2023-07-29T03:28:46;5.33;;;2.80;;
1258;SDS011;619;51.472;6.628;2023-07-29T03:31:12;2.73;;;2.53;;
1258;SDS011;619;51.472;6.628;2023-07-29T03:33:42;3.07;;;2.40;;
1258;SDS011;619;51.472;6.628;2023-07-29T03:36:11;4.20;;;2.80;;
1258;SDS011;619;51.472;6.628;2023-07-29T03:38:37;4.93;;;2.60;;
1258;SDS011;619;51.472;6.628;2023-07-29T03:41:06;3.67;;;2.53;;
1258;SDS011;619;51.472;6.628;2023-07-29T03:43:32;3.07;;;2.77;;
1258;SDS011;619;51.472;6.628;2023-07-29T03:46:00;5.30;;;2.60;;
1258;SDS011;619;51.472;6.628;2023-07-29T03:48:28;3.03;;;2.73;;
1258;SDS011;619;51.472;6.628;2023-07-29T03:50:54;4.93;;;2.70;;
1258;SDS011;619;51.472;6.628;2023-07-29T03:53:19;2.60;;;2.40;;
1258;SDS011;619;51.472;6.628;2023-07-29T03:55:47;2.40;;;2.20;;
1258;SDS011;619;51.472;6.628;2023-07-29T03:58:15;3.00;;;2.63;;
1258;SDS011;619;51.472;6.628;2023-07-29T04:00:41;3.33;;;2.83;;
1258;SDS011;619;51.472;6.628;2023-07-29T04:03:09;4.23;;;3.10;;
1258;SDS011;619;51.472;6.628;2023-07-29T04:05:37;4.30;;;3.40;;
1258;SDS011;619;51.472;6.628;2023-07-29T04:08:04;3.00;;;2.80;;
1258;SDS011;619;51.472;6.628;2023-07-29T04:10:30;11.33;;;3.27;;
1258;SDS011;619;51.472;6.628;2023-07-29T04:13:03;5.10;;;3.20;;
1258;SDS011;619;51.472;6.628;2023-07-29T04:15:31;5.17;;;3.07;;
1258;SDS011;619;51.472;6.628;2023-07-29T04:18:04;3.77;;;3.03;;
1258;SDS011;619;51.472;6.628;2023-07-29T04:20:29;3.53;;;3.23;;
1258;SDS011;619;51.472;6.628;2023-07-29T04:22:58;3.10;;;2.73;;
1258;SDS011;619;51.472;6.628;2023-07-29T04:25:24;8.43;;;4.07;;
1258;SDS011;619;51.472;6.628;2023-07-29T04:27:54;4.43;;;3.17;;
1258;SDS011;619;51.472;6.628;2023-07-29T04:30:25;7.43;;;3.30;;
1258;SDS011;619;51.472;6.628;2023-07-29T04:32:53;4.10;;;3.70;;
1258;SDS011;619;51.472;6.628;2023-07-29T04:35:21;5.70;;;4.27;;
1258;SDS011;619;51.472;6.628;2023-07-29T04:37:46;5.03;;;4.53;;
1258;SDS011;619;51.472;6.628;2023-07-29T04:40:13;5.50;;;3.97;;
1258;SDS011;619;51.472;6.628;2023-07-29T04:42:43;4.67;;;3.97;;
1258;SDS011;619;51.472;6.628;2023-07-29T04:45:11;4.70;;;3.90;;
1258;SDS011;619;51.472;6.628;2023-07-29T04:47:37;4.77;;;3.67;;
1258;SDS011;619;51.472;6.628;2023-07-29T04:50:02;4.43;;;3.90;;
1258;SDS011;619;51.472;6.628;2023-07-29T04:52:33;5.60;;;3.67;;
1258;SDS011;619;51.472;6.628;2023-07-29T04:54:59;5.47;;;3.67;;
1258;SDS011;619;51.472;6.628;2023-07-29T04:57:27;5.00;;;3.07;;
1258;SDS011;619;51.472;6.628;2023-07-29T04:59:52;3.90;;;3.60;;
1258;SDS011;619;51.472;6.628;2023-07-29T05:02:18;4.10;;;3.80;;
1258;SDS011;619;51.472;6.628;2023-07-29T05:04:43;3.60;;;3.30;;
1258;SDS011;619;51.472;6.628;2023-07-29T05:07:09;5.80;;;4.53;;
1258;SDS011;619;51.472;6.628;2023-07-29T05:09:34;5.90;;;4.23;;
1258;SDS011;619;51.472;6.628;2023-07-29T05:12:03;4.43;;;3.97;;
1258;SDS011;619;51.472;6.628;2023-07-29T05:14:28;4.50;;;4.10;;
1258;SDS011;619;51.472;6.628;2023-07-29T05:16:54;5.73;;;4.37;;
1258;SDS011;619;51.472;6.628;2023-07-29T05:19:22;6.53;;;4.67;;
1258;SDS011;619;51.472;6.628;2023-07-29T05:21:47;10.97;;;4.97;;
1258;SDS011;619;51.472;6.628;2023-07-29T05:24:13;5.50;;;5.00;;
1258;SDS011;619;51.472;6.628;2023-07-29T05:26:38;4.73;;;4.17;;
1258;SDS011;619;51.472;6.628;2023-07-29T05:29:04;5.77;;;4.40;;
1258;SDS011;619;51.472;6.628;2023-07-29T05:31:30;4.23;;;3.83;;
1258;SDS011;619;51.472;6.628;2023-07-29T05:33:56;4.60;;;4.10;;
1258;SDS011;619;51.472;6.628;2023-07-29T05:36:21;8.47;;;4.20;;
1258;SDS011;619;51.472;6.628;2023-07-29T05:38:47;4.27;;;3.87;;
1258;SDS011;619;51.472;6.628;2023-07-29T05:41:12;4.20;;;3.53;;
1258;SDS011;619;51.472;6.628;2023-07-29T05:43:38;3.93;;;3.63;;
1258;SDS011;619;51.472;6.628;2023-07-29T05:46:03;5.10;;;3.87;;
1258;SDS011;619;51.472;6.628;2023-07-29T05:48:29;4.20;;;3.23;;
1258;SDS011;619;51.472;6.628;2023-07-29T05:50:55;8.30;;;3.80;;
1258;SDS011;619;51.472;6.628;2023-07-29T05:53:20;5.80;;;3.70;;
1258;SDS011;619;51.472;6.628;2023-07-29T05:55:46;4.60;;;3.53;;
1258;SDS011;619;51.472;6.628;2023-07-29T05:58:13;5.07;;;3.20;;
1258;SDS011;619;51.472;6.628;2023-07-29T06:00:44;4.00;;;3.13;;
1258;SDS011;619;51.472;6.628;2023-07-29T06:03:09;4.47;;;3.70;;
1258;SDS011;619;51.472;6.628;2023-07-29T06:05:37;4.10;;;3.70;;
1258;SDS011;619;51.472;6.628;2023-07-29T06:08:04;3.17;;;2.87;;
1258;SDS011;619;51.472;6.628;2023-07-29T06:10:33;4.77;;;3.03;;
1258;SDS011;619;51.472;6.628;2023-07-29T06:12:59;3.70;;;3.30;;
1258;SDS011;619;51.472;6.628;2023-07-29T06:15:27;3.93;;;2.77;;
1258;SDS011;619;51.472;6.628;2023-07-29T06:17:53;5.30;;;3.30;;
1258;SDS011;619;51.472;6.628;2023-07-29T06:20:22;4.03;;;2.53;;
1258;SDS011;619;51.472;6.628;2023-07-29T06:22:48;3.77;;;3.40;;
1258;SDS011;619;51.472;6.628;2023-07-29T06:25:16;3.57;;;2.80;;
1258;SDS011;619;51.472;6.628;2023-07-29T06:27:44;3.23;;;2.67;;
1258;SDS011;619;51.472;6.628;2023-07-29T06:30:12;3.40;;;3.10;;
1258;SDS011;619;51.472;6.628;2023-07-29T06:32:37;2.60;;;2.40;;
1258;SDS011;619;51.472;6.628;2023-07-29T06:35:03;3.93;;;3.07;;
1258;SDS011;619;51.472;6.628;2023-07-29T06:37:29;3.30;;;3.00;;
1258;SDS011;619;51.472;6.628;2023-07-29T06:39:58;2.40;;;2.20;;
1258;SDS011;619;51.472;6.628;2023-07-29T06:42:23;2.60;;;2.40;;
1258;SDS011;619;51.472;6.628;2023-07-29T06:44:51;5.93;;;2.40;;
1258;SDS011;619;51.472;6.628;2023-07-29T06:47:19;2.47;;;2.17;;
1258;SDS011;619;51.472;6.628;2023-07-29T06:49:46;2.57;;;2.30;;
1258;SDS011;619;51.472;6.628;2023-07-29T06:52:14;3.10;;;2.47;;
1258;SDS011;619;51.472;6.628;2023-07-29T06:54:42;3.53;;;2.80;;
1258;SDS011;619;51.472;6.628;2023-07-29T06:57:07;3.40;;;2.60;;
1258;SDS011;619;51.472;6.628;2023-07-29T06:59:35;2.63;;;2.40;;
1258;SDS011;619;51.472;6.628;2023-07-29T07:02:01;3.47;;;2.60;;
1258;SDS011;619;51.472;6.628;2023-07-29T07:04:27;5.33;;;2.37;;
1258;SDS011;619;51.472;6.628;2023-07-29T07:06:52;6.20;;;2.37;;
1258;SDS011;619;51.472;6.628;2023-07-29T07:09:20;3.73;;;2.33;;
1258;SDS011;619;51.472;6.628;2023-07-29T07:11:46;2.30;;;1.97;;
1258;SDS011;619;51.472;6.628;2023-07-29T07:14:11;3.37;;;3.07;;
1258;SDS011;619;51.472;6.628;2023-07-29T07:16:37;4.80;;;2.67;;
1258;SDS011;619;51.472;6.628;2023-07-29T07:19:04;4.87;;;4.37;;
1258;SDS011;619;51.472;6.628;2023-07-29T07:21:32;4.50;;;2.17;;
1258;SDS011;619;51.472;6.628;2023-07-29T07:23:57;2.97;;;2.20;;
1258;SDS011;619;51.472;6.628;2023-07-29T07:26:25;3.03;;;2.20;;
1258;SDS011;619;51.472;6.628;2023-07-29T07:28:53;2.60;;;2.40;;
1258;SDS011;619;51.472;6.628;2023-07-29T07:31:19;4.30;;;1.90;;
1258;SDS011;619;51.472;6.628;2023-07-29T07:33:45;2.13;;;1.70;;
1258;SDS011;619;51.472;6.628;2023-07-29T07:36:13;2.60;;;1.60;;
1258;SDS011;619;51.472;6.628;2023-07-29T07:38:38;2.50;;;1.73;;
1258;SDS011;619;51.472;6.628;2023-07-29T07:41:06;2.60;;;2.20;;
1258;SDS011;619;51.472;6.628;2023-07-29T07:43:32;2.40;;;1.93;;
1258;SDS011;619;51.472;6.628;2023-07-29T07:46:00;3.90;;;1.83;;
1258;SDS011;619;51.472;6.628;2023-07-29T07:48:30;2.70;;;2.00;;
1258;SDS011;619;51.472;6.628;2023-07-29T07:50:58;2.13;;;1.70;;
1258;SDS011;619;51.472;6.628;2023-07-29T07:53:24;2.67;;;1.70;;
1258;SDS011;619;51.472;6.628;2023-07-29T07:55:50;3.23;;;1.57;;
1258;SDS011;619;51.472;6.628;2023-07-29T07:58:16;1.70;;;1.60;;
1258;SDS011;619;51.472;6.628;2023-07-29T08:00:46;2.00;;;1.50;;
1258;SDS011;619;51.472;6.628;2023-07-29T08:03:12;4.20;;;1.63;;
1258;SDS011;619;51.472;6.628;2023-07-29T08:05:37;2.30;;;1.50;;
1258;SDS011;619;51.472;6.628;2023-07-29T08:08:03;1.93;;;1.53;;
1258;SDS011;619;51.472;6.628;2023-07-29T08:10:29;3.23;;;1.50;;
1258;SDS011;619;51.472;6.628;2023-07-29T08:12:54;2.73;;;1.40;;
1258;SDS011;619;51.472;6.628;2023-07-29T08:15:20;2.03;;;1.50;;
1258;SDS011;619;51.472;6.628;2023-07-29T08:17:45;1.50;;;1.37;;
1258;SDS011;619;51.472;6.628;2023-07-29T08:20:13;4.27;;;1.87;;
1258;SDS011;619;51.472;6.628;2023-07-29T08:22:39;1.70;;;1.10;;
1258;SDS011;619;51.472;6.628;2023-07-29T08:25:05;2.93;;;1.50;;
1258;SDS011;619;51.472;6.628;2023-07-29T08:27:32;1.70;;;1.20;;
1258;SDS011;619;51.472;6.628;2023-07-29T08:29:59;2.67;;;1.67;;
1258;SDS011;619;51.472;6.628;2023-07-29T08:32:30;2.60;;;1.40;;
1258;SDS011;619;51.472;6.628;2023-07-29T08:34:55;1.60;;;1.50;;
1258;SDS011;619;51.472;6.628;2023-07-29T08:37:23;3.20;;;1.17;;
1258;SDS011;619;51.472;6.628;2023-07-29T08:39:51;4.73;;;1.40;;
1258;SDS011;619;51.472;6.628;2023-07-29T08:42:18;7.43;;;5.03;;
1258;SDS011;619;51.472;6.628;2023-07-29T08:44:44;2.17;;;1.90;;
1258;SDS011;619;51.472;6.628;2023-07-29T08:47:16;1.50;;;1.40;;
1258;SDS011;619;51.472;6.628;2023-07-29T08:49:43;1.40;;;1.20;;
1258;SDS011;619;51.472;6.628;2023-07-29T08:52:11;2.90;;;1.53;;
1258;SDS011;619;51.472;6.628;2023-07-29T08:54:37;2.50;;;2.27;;
1258;SDS011;619;51.472;6.628;2023-07-29T08:57:02;1.83;;;1.57;;
1258;SDS011;619;51.472;6.628;2023-07-29T08:59:28;2.20;;;1.97;;
1258;SDS011;619;51.472;6.628;2023-07-29T09:01:54;2.13;;;1.50;;
1258;SDS011;619;51.472;6.628;2023-07-29T09:04:22;1.70;;;1.60;;
1258;SDS011;619;51.472;6.628;2023-07-29T09:06:48;2.77;;;1.53;;
1258;SDS011;619;51.472;6.628;2023-07-29T09:09:16;1.43;;;1.30;;
1258;SDS011;619;51.472;6.628;2023-07-29T09:11:41;1.50;;;1.40;;
1258;SDS011;619;51.472;6.628;2023-07-29T09:14:07;2.00;;;1.73;;
1258;SDS011;619;51.472;6.628;2023-07-29T09:16:38;1.83;;;1.57;;
1258;SDS011;619;51.472;6.628;2023-07-29T09:19:06;3.50;;;2.47;;
1258;SDS011;619;51.472;6.628;2023-07-29T09:21:38;2.20;;;2.00;;
1258;SDS011;619;51.472;6.628;2023-07-29T09:24:04;5.00;;;4.03;;
1258;SDS011;619;51.472;6.628;2023-07-29T09:26:33;3.40;;;2.37;;
1258;SDS011;619;51.472;6.628;2023-07-29T09:29:01;2.23;;;1.97;;
1258;SDS011;619;51.472;6.628;2023-07-29T09:31:27;2.10;;;1.80;;
1258;SDS011;619;51.472;6.628;2023-07-29T09:34:00;2.50;;;1.93;;
1258;SDS011;619;51.472;6.628;2023-07-29T09:36:32;2.73;;;1.80;;
1258;SDS011;619;51.472;6.628;2023-07-29T09:38:58;4.43;;;1.80;;
1258;SDS011;619;51.472;6.628;2023-07-29T09:41:28;1.67;;;1.57;;
1258;SDS011;619;51.472;6.628;2023-07-29T09:43:56;1.90;;;1.63;;
1258;SDS011;619;51.472;6.628;2023-07-29T09:46:23;3.03;;;1.90;;
1258;SDS011;619;51.472;6.628;2023-07-29T09:48:52;1.53;;;1.43;;
1258;SDS011;619;51.472;6.628;2023-07-29T09:51:21;2.13;;;1.90;;
1258;SDS011;619;51.472;6.628;2023-07-29T09:53:47;2.10;;;1.90;;
1258;SDS011;619;51.472;6.628;2023-07-29T09:56:14;2.10;;;1.53;;
1258;SDS011;619;51.472;6.628;2023-07-29T09:58:41;3.30;;;1.80;;
1258;SDS011;619;51.472;6.628;2023-07-29T10:01:08;3.40;;;2.30;;
1258;SDS011;619;51.472;6.628;2023-07-29T10:03:34;1.90;;;1.60;;
1258;SDS011;619;51.472;6.628;2023-07-29T10:06:01;2.70;;;1.80;;
1258;SDS011;619;51.472;6.628;2023-07-29T10:08:29;2.30;;;1.60;;
1258;SDS011;619;51.472;6.628;2023-07-29T10:11:10;2.00;;;1.60;;
1258;SDS011;619;51.472;6.628;2023-07-29T10:13:40;1.63;;;1.53;;
1258;SDS011;619;51.472;6.628;2023-07-29T10:16:06;2.00;;;1.80;;
1258;SDS011;619;51.472;6.628;2023-07-29T10:18:33;2.13;;;1.40;;
1258;SDS011;619;51.472;6.628;2023-07-29T10:21:02;5.90;;;2.00;;
1258;SDS011;619;51.472;6.628;2023-07-29T10:23:34;2.13;;;1.93;;
1258;SDS011;619;51.472;6.628;2023-07-29T10:26:04;2.00;;;1.60;;
1258;SDS011;619;51.472;6.628;2023-07-29T10:28:32;1.50;;;1.10;;
1258;SDS011;619;51.472;6.628;2023-07-29T10:31:04;2.17;;;1.70;;
1258;SDS011;619;51.472;6.628;2023-07-29T10:33:30;4.60;;;1.70;;
1258;SDS011;619;51.472;6.628;2023-07-29T10:35:58;2.00;;;1.77;;
1258;SDS011;619;51.472;6.628;2023-07-29T10:38:24;2.77;;;2.00;;
1258;SDS011;619;51.472;6.628;2023-07-29T10:40:52;2.47;;;1.90;;
1258;SDS011;619;51.472;6.628;2023-07-29T10:45:50;1.50;;;1.37;;
1258;SDS011;619;51.472;6.628;2023-07-29T10:54:18;4.20;;;2.10;;
1258;SDS011;619;51.472;6.628;2023-07-29T10:56:47;2.60;;;1.67;;
1258;SDS011;619;51.472;6.628;2023-07-29T11:01:56;2.43;;;1.73;;
1258;SDS011;619;51.472;6.628;2023-07-29T11:04:23;1.70;;;1.50;;
1258;SDS011;619;51.472;6.628;2023-07-29T11:09:40;2.20;;;1.63;;
1258;SDS011;619;51.472;6.628;2023-07-29T11:17:35;3.10;;;1.80;;
1258;SDS011;619;51.472;6.628;2023-07-29T11:20:07;1.93;;;1.50;;
1258;SDS011;619;51.472;6.628;2023-07-29T11:22:33;2.40;;;2.00;;
1258;SDS011;619;51.472;6.628;2023-07-29T11:25:00;2.63;;;1.80;;
1258;SDS011;619;51.472;6.628;2023-07-29T11:27:28;2.30;;;1.80;;
1258;SDS011;619;51.472;6.628;2023-07-29T11:30:00;1.63;;;1.33;;
1258;SDS011;619;51.472;6.628;2023-07-29T11:32:31;1.63;;;1.47;;
1258;SDS011;619;51.472;6.628;2023-07-29T11:37:32;1.57;;;1.47;;
1258;SDS011;619;51.472;6.628;2023-07-29T11:40:01;2.07;;;1.67;;
1258;SDS011;619;51.472;6.628;2023-07-29T11:42:33;2.87;;;2.50;;
1258;SDS011;619;51.472;6.628;2023-07-29T11:45:02;1.43;;;1.27;;
1258;SDS011;619;51.472;6.628;2023-07-29T11:47:28;2.50;;;2.07;;
1258;SDS011;619;51.472;6.628;2023-07-29T11:49:57;2.60;;;1.50;;
1258;SDS011;619;51.472;6.628;2023-07-29T11:52:27;2.00;;;1.80;;
1258;SDS011;619;51.472;6.628;2023-07-29T11:54:59;4.03;;;2.27;;
1258;SDS011;619;51.472;6.628;2023-07-29T11:57:25;3.23;;;2.43;;
1258;SDS011;619;51.472;6.628;2023-07-29T11:59:54;2.53;;;1.80;;
1258;SDS011;619;51.472;6.628;2023-07-29T12:02:19;2.20;;;1.70;;
1258;SDS011;619;51.472;6.628;2023-07-29T12:04:48;3.10;;;2.03;;
1258;SDS011;619;51.472;6.628;2023-07-29T12:07:17;2.40;;;1.63;;
1258;SDS011;619;51.472;6.628;2023-07-29T12:09:46;4.33;;;1.70;;
1258;SDS011;619;51.472;6.628;2023-07-29T12:12:15;3.00;;;1.87;;
1258;SDS011;619;51.472;6.628;2023-07-29T12:14:46;1.80;;;1.50;;
1258;SDS011;619;51.472;6.628;2023-07-29T12:17:14;2.43;;;1.80;;
1258;SDS011;619;51.472;6.628;2023-07-29T12:19:45;1.80;;;1.53;;
1258;SDS011;619;51.472;6.628;2023-07-29T12:22:17;2.60;;;1.90;;
1258;SDS011;619;51.472;6.628;2023-07-29T12:24:43;2.10;;;1.90;;
1258;SDS011;619;51.472;6.628;2023-07-29T12:27:13;2.83;;;1.93;;
1258;SDS011;619;51.472;6.628;2023-07-29T12:29:43;6.03;;;1.90;;
1258;SDS011;619;51.472;6.628;2023-07-29T12:32:11;3.27;;;1.70;;
1258;SDS011;619;51.472;6.628;2023-07-29T12:34:37;2.73;;;2.30;;
1258;SDS011;619;51.472;6.628;2023-07-29T12:37:06;1.80;;;1.60;;
1258;SDS011;619;51.472;6.628;2023-07-29T12:39:33;2.13;;;1.73;;
1258;SDS011;619;51.472;6.628;2023-07-29T12:42:00;5.10;;;1.83;;
1258;SDS011;619;51.472;6.628;2023-07-29T12:44:29;2.67;;;1.90;;
1258;SDS011;619;51.472;6.628;2023-07-29T12:46:56;2.90;;;1.97;;
1258;SDS011;619;51.472;6.628;2023-07-29T12:49:22;2.90;;;2.27;;
1258;SDS011;619;51.472;6.628;2023-07-29T12:51:48;2.10;;;1.70;;
1258;SDS011;619;51.472;6.628;2023-07-29T12:54:13;2.00;;;1.80;;
1258;SDS011;619;51.472;6.628;2023-07-29T12:56:39;3.73;;;2.13;;
1258;SDS011;619;51.472;6.628;2023-07-29T12:59:07;3.10;;;1.90;;
1258;SDS011;619;51.472;6.628;2023-07-29T13:01:32;2.00;;;1.80;;
1258;SDS011;619;51.472;6.628;2023-07-29T13:03:58;4.13;;;2.60;;
1258;SDS011;619;51.472;6.628;2023-07-29T13:06:24;3.50;;;1.87;;
1258;SDS011;619;51.472;6.628;2023-07-29T13:08:49;4.60;;;3.50;;
1258;SDS011;619;51.472;6.628;2023-07-29T13:11:17;5.20;;;2.67;;
1258;SDS011;619;51.472;6.628;2023-07-29T13:13:43;2.13;;;1.93;;
1258;SDS011;619;51.472;6.628;2023-07-29T13:16:10;3.87;;;2.80;;
1258;SDS011;619;51.472;6.628;2023-07-29T13:18:39;3.33;;;2.40;;
1258;SDS011;619;51.472;6.628;2023-07-29T13:21:05;3.90;;;2.17;;
1258;SDS011;619;51.472;6.628;2023-07-29T13:23:31;2.43;;;2.17;;
1258;SDS011;619;51.472;6.628;2023-07-29T13:25:59;3.30;;;3.00;;
1258;SDS011;619;51.472;6.628;2023-07-29T13:28:25;4.17;;;3.17;;
1258;SDS011;619;51.472;6.628;2023-07-29T13:30:50;2.57;;;2.10;;
1258;SDS011;619;51.472;6.628;2023-07-29T13:33:18;4.10;;;2.77;;
1258;SDS011;619;51.472;6.628;2023-07-29T13:35:44;6.23;;;2.77;;
1258;SDS011;619;51.472;6.628;2023-07-29T13:38:09;4.90;;;2.63;;
1258;SDS011;619;51.472;6.628;2023-07-29T13:40:36;2.63;;;2.43;;
1258;SDS011;619;51.472;6.628;2023-07-29T13:43:04;4.33;;;3.10;;
1258;SDS011;619;51.472;6.628;2023-07-29T13:45:30;5.37;;;3.03;;
1258;SDS011;619;51.472;6.628;2023-07-29T13:48:00;3.70;;;2.70;;
1258;SDS011;619;51.472;6.628;2023-07-29T13:50:26;3.63;;;2.80;;
1258;SDS011;619;51.472;6.628;2023-07-29T13:52:51;8.73;;;4.30;;
1258;SDS011;619;51.472;6.628;2023-07-29T13:55:19;5.80;;;3.80;;
1258;SDS011;619;51.472;6.628;2023-07-29T13:57:49;9.17;;;3.90;;
1258;SDS011;619;51.472;6.628;2023-07-29T14:00:17;5.10;;;2.60;;
1258;SDS011;619;51.472;6.628;2023-07-29T14:02:43;8.33;;;2.87;;
1258;SDS011;619;51.472;6.628;2023-07-29T14:05:11;3.90;;;2.63;;
1258;SDS011;619;51.472;6.628;2023-07-29T14:07:39;4.17;;;2.30;;
1258;SDS011;619;51.472;6.628;2023-07-29T14:10:07;3.40;;;2.60;;
1258;SDS011;619;51.472;6.628;2023-07-29T14:12:33;5.43;;;3.03;;
1258;SDS011;619;51.472;6.628;2023-07-29T14:14:59;3.27;;;2.97;;
1258;SDS011;619;51.472;6.628;2023-07-29T14:17:29;5.83;;;2.40;;
1258;SDS011;619;51.472;6.628;2023-07-29T14:19:55;2.90;;;2.20;;
1258;SDS011;619;51.472;6.628;2023-07-29T14:22:23;3.00;;;2.67;;
1258;SDS011;619;51.472;6.628;2023-07-29T14:24:48;4.23;;;2.63;;
1258;SDS011;619;51.472;6.628;2023-07-29T14:27:14;3.50;;;2.90;;
1258;SDS011;619;51.472;6.628;2023-07-29T14:29:42;3.30;;;2.00;;
1258;SDS011;619;51.472;6.628;2023-07-29T14:32:07;4.27;;;2.73;;
1258;SDS011;619;51.472;6.628;2023-07-29T14:34:33;5.60;;;2.50;;
1258;SDS011;619;51.472;6.628;2023-07-29T14:37:01;4.63;;;2.33;;
1258;SDS011;619;51.472;6.628;2023-07-29T14:39:27;11.40;;;3.63;;
1258;SDS011;619;51.472;6.628;2023-07-29T14:41:52;4.97;;;2.67;;
1258;SDS011;619;51.472;6.628;2023-07-29T14:44:23;4.60;;;2.13;;
1258;SDS011;619;51.472;6.628;2023-07-29T14:46:50;3.70;;;2.70;;
1258;SDS011;619;51.472;6.628;2023-07-29T14:49:16;5.57;;;2.53;;
1258;SDS011;619;51.472;6.628;2023-07-29T14:51:41;2.70;;;2.50;;
1258;SDS011;619;51.472;6.628;2023-07-29T14:54:09;3.20;;;2.30;;
1258;SDS011;619;51.472;6.628;2023-07-29T14:56:35;2.90;;;2.67;;
1258;SDS011;619;51.472;6.628;2023-07-29T14:59:01;3.90;;;3.10;;
1258;SDS011;619;51.472;6.628;2023-07-29T15:01:26;3.10;;;2.50;;
1258;SDS011;619;51.472;6.628;2023-07-29T15:03:52;4.13;;;3.30;;
1258;SDS011;619;51.472;6.628;2023-07-29T15:06:17;4.20;;;3.47;;
1258;SDS011;619;51.472;6.628;2023-07-29T15:08:48;3.93;;;3.03;;
1258;SDS011;619;51.472;6.628;2023-07-29T15:11:16;3.47;;;3.17;;
1258;SDS011;619;51.472;6.628;2023-07-29T15:13:41;6.70;;;5.27;;
1258;SDS011;619;51.472;6.628;2023-07-29T15:16:07;4.70;;;3.80;;
1258;SDS011;619;51.472;6.628;2023-07-29T15:18:35;3.60;;;3.07;;
1258;SDS011;619;51.472;6.628;2023-07-29T15:21:03;3.67;;;2.77;;
1258;SDS011;619;51.472;6.628;2023-07-29T15:23:28;2.97;;;2.67;;
1258;SDS011;619;51.472;6.628;2023-07-29T15:25:56;4.63;;;2.40;;
1258;SDS011;619;51.472;6.628;2023-07-29T15:28:22;5.90;;;2.87;;
1258;SDS011;619;51.472;6.628;2023-07-29T15:30:49;3.17;;;2.50;;
1258;SDS011;619;51.472;6.628;2023-07-29T15:33:22;2.40;;;2.03;;
1258;SDS011;619;51.472;6.628;2023-07-29T15:35:47;1.87;;;1.67;;
1258;SDS011;619;51.472;6.628;2023-07-29T15:38:13;2.40;;;1.87;;
1258;SDS011;619;51.472;6.628;2023-07-29T15:40:41;5.50;;;2.47;;
1258;SDS011;619;51.472;6.628;2023-07-29T15:43:09;2.77;;;1.80;;
1258;SDS011;619;51.472;6.628;2023-07-29T15:45:35;1.97;;;1.77;;
1258;SDS011;619;51.472;6.628;2023-07-29T15:48:03;1.90;;;1.70;;
1258;SDS011;619;51.472;6.628;2023-07-29T15:50:29;3.60;;;1.60;;
1258;SDS011;619;51.472;6.628;2023-07-29T15:52:57;5.93;;;4.47;;
1258;SDS011;619;51.472;6.628;2023-07-29T15:55:22;3.50;;;3.00;;
1258;SDS011;619;51.472;6.628;2023-07-29T15:57:49;3.90;;;2.00;;
1258;SDS011;619;51.472;6.628;2023-07-29T16:00:17;2.10;;;1.90;;
1258;SDS011;619;51.472;6.628;2023-07-29T16:02:47;2.27;;;1.80;;
1258;SDS011;619;51.472;6.628;2023-07-29T16:05:15;2.00;;;1.63;;